Time;durP1;ratioP1;P1;durP2;ratioP2;P2;SDS_P1;SDS_P2;PMS_P1;PMS_P2;Temp;Humidity;BMP_temperature;BMP_pressure;BME280_temperature;BME280_humidity;BME280_pressure;Samples;Min_cycle;Max_cycle;Signal;HPM_P1;HPM_P2
2022/04/29 00:00:41;;;;;;;9.05;2.92;;;;;;;;;;5030664;28;20060;-77
2022/04/29 00:03:07;;;;;;;6.07;2.60;;;;;;;;;;5025652;28;20034;-78
2022/04/29 00:05:35;;;;;;;12.60;4.22;;;;;;;;;;5029190;28;20041;-77
2022/04/29 00:08:05;;;;;;;7.55;2.90;;;;;;;;;;5043668;28;20048;-77
2022/04/29 00:10:31;;;;;;;8.95;2.70;;;;;;;;;;5043402;28;20033;-78
2022/04/29 00:12:59;;;;;;;9.65;3.33;;;;;;;;;;5020921;28;20091;-78
2022/04/29 00:15:25;;;;;;;13.02;3.00;;;;;;;;;;5041789;28;20387;-79
2022/04/29 00:17:51;;;;;;;10.38;2.70;;;;;;;;;;5030040;28;20041;-79
2022/04/29 00:20:17;;;;;;;12.93;2.75;;;;;;;;;;5020983;28;20029;-79
2022/04/29 00:22:44;;;;;;;21.58;5.03;;;;;;;;;;5031759;28;20381;-83
2022/04/29 00:25:10;;;;;;;10.15;3.10;;;;;;;;;;5033864;28;20025;-79
2022/04/29 00:27:36;;;;;;;5.45;2.97;;;;;;;;;;5033958;28;20029;-79
2022/04/29 00:30:04;;;;;;;6.63;2.88;;;;;;;;;;5015699;28;20050;-78
2022/04/29 00:32:30;;;;;;;6.78;3.08;;;;;;;;;;5011448;28;20029;-78
2022/04/29 00:34:56;;;;;;;7.82;3.30;;;;;;;;;;5011113;28;20026;-77
2022/04/29 00:37:22;;;;;;;13.43;4.47;;;;;;;;;;4993222;28;20038;-78
2022/04/29 00:39:48;;;;;;;5.30;2.67;;;;;;;;;;5018917;28;20397;-79
2022/04/29 00:42:15;;;;;;;6.78;2.35;;;;;;;;;;5010080;28;20038;-79
2022/04/29 00:44:41;;;;;;;6.65;2.88;;;;;;;;;;5004207;28;20125;-79
2022/04/29 00:47:09;;;;;;;9.57;3.55;;;;;;;;;;5009156;28;20034;-78
2022/04/29 00:49:35;;;;;;;8.02;2.80;;;;;;;;;;5010466;28;20048;-78
2022/04/29 00:52:01;;;;;;;7.57;3.15;;;;;;;;;;5011571;28;20660;-77
2022/04/29 00:54:29;;;;;;;7.05;2.78;;;;;;;;;;5011612;28;20108;-77
2022/04/29 00:56:55;;;;;;;6.32;2.88;;;;;;;;;;5009399;28;20034;-78
2022/04/29 00:59:40;;;;;;;6.80;3.20;;;;;;;;;;5011380;28;20075;-78
2022/04/29 01:02:08;;;;;;;8.10;3.20;;;;;;;;;;5009110;28;20049;-77
2022/04/29 01:04:37;;;;;;;7.63;3.25;;;;;;;;;;5013431;28;20072;-79
2022/04/29 01:07:07;;;;;;;12.93;2.92;;;;;;;;;;5017007;28;20120;-78
2022/04/29 01:09:33;;;;;;;7.90;3.25;;;;;;;;;;5011098;28;20117;-78
2022/04/29 01:11:59;;;;;;;10.52;3.15;;;;;;;;;;5018370;28;20501;-77
2022/04/29 01:14:25;;;;;;;8.98;3.97;;;;;;;;;;5003490;28;20061;-77
2022/04/29 01:16:51;;;;;;;10.10;3.22;;;;;;;;;;5012600;28;20026;-79
2022/04/29 01:19:17;;;;;;;11.98;3.60;;;;;;;;;;5013263;28;20394;-78
2022/04/29 01:21:44;;;;;;;13.35;3.80;;;;;;;;;;5013098;28;20037;-77
2022/04/29 01:24:10;;;;;;;13.07;3.70;;;;;;;;;;5007930;28;20034;-78
2022/04/29 01:26:36;;;;;;;12.10;3.70;;;;;;;;;;5003323;28;20027;-79
2022/04/29 01:29:06;;;;;;;12.40;4.35;;;;;;;;;;5015018;28;20506;-78
2022/04/29 01:31:32;;;;;;;8.95;3.70;;;;;;;;;;5033188;28;20025;-78
2022/04/29 01:33:59;;;;;;;7.95;3.35;;;;;;;;;;5013993;28;20119;-78
2022/04/29 01:36:25;;;;;;;14.05;4.22;;;;;;;;;;5029618;28;20036;-78
2022/04/29 01:38:51;;;;;;;9.02;3.20;;;;;;;;;;5034393;28;20436;-78
2022/04/29 01:41:17;;;;;;;9.15;3.92;;;;;;;;;;5033095;28;20042;-80
2022/04/29 01:43:43;;;;;;;14.55;4.05;;;;;;;;;;5027241;28;20061;-78
2022/04/29 01:46:09;;;;;;;7.50;3.28;;;;;;;;;;5032223;28;20037;-79
2022/04/29 01:48:38;;;;;;;5.45;3.22;;;;;;;;;;5041882;28;20484;-79
2022/04/29 01:51:06;;;;;;;10.68;3.33;;;;;;;;;;5048341;28;20037;-78
2022/04/29 01:53:32;;;;;;;9.30;3.28;;;;;;;;;;5030593;28;20073;-78
2022/04/29 01:55:58;;;;;;;9.65;3.22;;;;;;;;;;5034156;28;20105;-78
2022/04/29 01:58:24;;;;;;;13.02;3.75;;;;;;;;;;5032345;28;20041;-78
2022/04/29 02:00:50;;;;;;;15.75;3.63;;;;;;;;;;5031336;28;20041;-78
2022/04/29 02:03:16;;;;;;;8.40;4.00;;;;;;;;;;5015602;28;20029;-79
2022/04/29 02:05:42;;;;;;;8.13;3.90;;;;;;;;;;5033307;28;20045;-78
2022/04/29 02:08:08;;;;;;;6.40;3.05;;;;;;;;;;5036623;28;20301;-78
2022/04/29 02:10:35;;;;;;;7.10;3.67;;;;;;;;;;5034097;28;20024;-76
2022/04/29 02:13:01;;;;;;;11.95;3.45;;;;;;;;;;5047983;28;20132;-77
2022/04/29 02:15:27;;;;;;;6.95;3.30;;;;;;;;;;5037165;28;20026;-80
2022/04/29 02:17:53;;;;;;;9.07;3.53;;;;;;;;;;5033300;28;20037;-77
2022/04/29 02:20:21;;;;;;;8.88;3.53;;;;;;;;;;5034127;28;20036;-76
2022/04/29 02:22:47;;;;;;;7.97;3.20;;;;;;;;;;5023450;28;20531;-76
2022/04/29 02:25:13;;;;;;;12.18;3.70;;;;;;;;;;5032205;28;20022;-77
2022/04/29 02:27:39;;;;;;;13.80;4.05;;;;;;;;;;5030873;28;20488;-77
2022/04/29 02:30:05;;;;;;;7.55;3.83;;;;;;;;;;5030168;28;20405;-77
2022/04/29 02:32:32;;;;;;;10.15;3.60;;;;;;;;;;5030322;28;20039;-77
2022/04/29 02:35:00;;;;;;;11.98;4.43;;;;;;;;;;5032390;28;20029;-77
2022/04/29 02:37:27;;;;;;;9.93;3.80;;;;;;;;;;5028792;28;20071;-78
2022/04/29 02:39:53;;;;;;;12.45;3.42;;;;;;;;;;5030466;28;20404;-78
2022/04/29 02:42:19;;;;;;;9.35;4.68;;;;;;;;;;5034116;28;20045;-77
2022/04/29 02:44:45;;;;;;;6.90;3.53;;;;;;;;;;5031674;28;20496;-78
2022/04/29 02:47:12;;;;;;;5.25;3.45;;;;;;;;;;5015120;28;20121;-78
2022/04/29 02:49:39;;;;;;;12.30;3.70;;;;;;;;;;5037326;28;20022;-78
2022/04/29 02:52:06;;;;;;;14.93;3.83;;;;;;;;;;5033282;28;20033;-77
2022/04/29 02:54:33;;;;;;;8.88;4.28;;;;;;;;;;5031600;28;20029;-77
2022/04/29 02:56:59;;;;;;;6.63;3.80;;;;;;;;;;5033449;28;20045;-77
2022/04/29 02:59:24;;;;;;;13.63;4.20;;;;;;;;;;5017875;28;20040;-77
2022/04/29 03:01:51;;;;;;;11.95;3.97;;;;;;;;;;5033027;28;20034;-78
2022/04/29 03:04:17;;;;;;;7.90;3.72;;;;;;;;;;5032725;28;20026;-78
2022/04/29 03:06:43;;;;;;;7.97;3.75;;;;;;;;;;5047958;28;20381;-77
2022/04/29 03:09:09;;;;;;;12.05;4.63;;;;;;;;;;5027765;28;20033;-78
2022/04/29 03:11:35;;;;;;;11.52;4.32;;;;;;;;;;5027444;28;20033;-78
2022/04/29 03:14:01;;;;;;;9.73;3.90;;;;;;;;;;5013225;28;20076;-78
2022/04/29 03:16:28;;;;;;;8.95;4.07;;;;;;;;;;5033246;28;20029;-78
2022/04/29 03:18:54;;;;;;;13.07;4.22;;;;;;;;;;5023162;28;20057;-77
2022/04/29 03:21:20;;;;;;;11.52;5.47;;;;;;;;;;5009953;28;20087;-77
2022/04/29 03:23:47;;;;;;;10.27;5.07;;;;;;;;;;5031867;28;20017;-78
2022/04/29 03:26:13;;;;;;;11.23;3.40;;;;;;;;;;5031944;28;20033;-78
2022/04/29 03:28:39;;;;;;;11.93;4.28;;;;;;;;;;5032939;28;20044;-80
2022/04/29 03:31:05;;;;;;;8.95;4.30;;;;;;;;;;5016014;28;20054;-78
2022/04/29 03:33:32;;;;;;;10.27;4.38;;;;;;;;;;5009460;28;20041;-77
2022/04/29 03:35:58;;;;;;;10.27;4.45;;;;;;;;;;5008413;28;20026;-78
2022/04/29 03:38:25;;;;;;;10.88;4.63;;;;;;;;;;4989307;28;20033;-78
2022/04/29 03:40:52;;;;;;;8.10;4.40;;;;;;;;;;4986245;28;20033;-78
2022/04/29 03:43:18;;;;;;;10.10;4.70;;;;;;;;;;4991291;28;20034;-78
2022/04/29 03:45:44;;;;;;;12.25;5.00;;;;;;;;;;5001665;28;20061;-78
2022/04/29 03:48:10;;;;;;;15.68;5.57;;;;;;;;;;5021873;28;20717;-78
2022/04/29 03:50:38;;;;;;;8.35;4.10;;;;;;;;;;5008759;28;20038;-78
2022/04/29 03:53:04;;;;;;;11.05;4.45;;;;;;;;;;5011514;28;20052;-77
2022/04/29 03:55:32;;;;;;;10.05;4.70;;;;;;;;;;5008941;28;20034;-77
2022/04/29 03:57:58;;;;;;;8.60;3.75;;;;;;;;;;4991862;28;20030;-77
2022/04/29 04:00:33;;;;;;;12.60;5.30;;;;;;;;;;5092707;27;1347179;-78
2022/04/29 04:03:00;;;;;;;10.75;4.53;;;;;;;;;;5124617;28;20170;-78
2022/04/29 04:05:26;;;;;;;9.05;6.05;;;;;;;;;;5120017;28;20027;-78
2022/04/29 04:07:52;;;;;;;9.65;4.13;;;;;;;;;;5128480;27;20046;-78
2022/04/29 04:10:18;;;;;;;11.02;5.03;;;;;;;;;;5125289;27;20031;-77
2022/04/29 04:12:51;;;;;;;11.25;4.47;;;;;;;;;;5128024;28;20031;-79
2022/04/29 04:15:19;;;;;;;7.90;4.57;;;;;;;;;;5125814;27;20035;-81
2022/04/29 04:17:45;;;;;;;10.63;5.07;;;;;;;;;;5121750;27;20032;-78
2022/04/29 04:20:12;;;;;;;8.90;4.90;;;;;;;;;;5126319;27;20058;-78
2022/04/29 04:22:38;;;;;;;10.10;5.47;;;;;;;;;;5125850;28;20135;-78
2022/04/29 04:25:05;;;;;;;10.32;4.95;;;;;;;;;;5128057;27;20032;-78
2022/04/29 04:27:31;;;;;;;7.55;5.15;;;;;;;;;;5121547;28;20543;-78
2022/04/29 04:29:58;;;;;;;10.60;5.00;;;;;;;;;;5123431;27;20486;-77
2022/04/29 04:32:24;;;;;;;10.35;5.68;;;;;;;;;;5126781;27;20050;-77
2022/04/29 04:34:50;;;;;;;15.32;5.85;;;;;;;;;;5119045;28;20487;-80
2022/04/29 04:37:17;;;;;;;11.60;5.80;;;;;;;;;;5117280;28;20051;-76
2022/04/29 04:39:44;;;;;;;14.02;5.28;;;;;;;;;;5116086;28;20510;-75
2022/04/29 04:42:10;;;;;;;10.68;5.45;;;;;;;;;;5124889;27;20073;-76
2022/04/29 04:44:36;;;;;;;10.05;6.28;;;;;;;;;;5126733;27;20066;-76
2022/04/29 04:47:03;;;;;;;10.35;4.65;;;;;;;;;;5127672;27;20042;-76
2022/04/29 04:49:29;;;;;;;12.82;5.15;;;;;;;;;;5126397;28;20035;-76
2022/04/29 04:51:58;;;;;;;14.75;6.57;;;;;;;;;;5125945;27;20035;-74
2022/04/29 04:54:24;;;;;;;10.73;5.97;;;;;;;;;;5114538;27;20063;-74
2022/04/29 04:56:50;;;;;;;9.52;5.75;;;;;;;;;;5122892;28;20042;-72
2022/04/29 04:59:16;;;;;;;9.18;5.45;;;;;;;;;;5125072;27;20410;-74
2022/04/29 05:01:42;;;;;;;12.25;5.07;;;;;;;;;;5116919;28;20023;-74
2022/04/29 05:04:09;;;;;;;7.65;5.22;;;;;;;;;;5127168;27;20038;-74
2022/04/29 05:06:38;;;;;;;13.00;5.20;;;;;;;;;;5121646;27;20383;-75
2022/04/29 05:09:04;;;;;;;12.07;5.38;;;;;;;;;;5123499;28;20140;-75
2022/04/29 05:11:30;;;;;;;10.23;5.63;;;;;;;;;;5115445;28;20042;-78
2022/04/29 05:13:57;;;;;;;13.25;6.32;;;;;;;;;;5113135;28;20093;-77
2022/04/29 05:16:23;;;;;;;12.30;5.60;;;;;;;;;;5107240;28;20068;-74
2022/04/29 05:18:49;;;;;;;9.27;5.68;;;;;;;;;;5112280;28;20107;-75
2022/04/29 05:21:16;;;;;;;42.55;24.05;;;;;;;;;;5102776;28;20130;-73
2022/04/29 05:23:42;;;;;;;11.50;6.45;;;;;;;;;;5110882;28;20477;-74
2022/04/29 05:26:08;;;;;;;10.23;6.38;;;;;;;;;;5112506;28;20020;-75
2022/04/29 05:28:34;;;;;;;10.02;5.57;;;;;;;;;;5111967;28;20051;-75
2022/04/29 05:31:01;;;;;;;12.98;5.55;;;;;;;;;;5106377;28;20028;-75
2022/04/29 05:33:27;;;;;;;9.73;5.45;;;;;;;;;;5105156;28;20031;-75
2022/04/29 05:35:53;;;;;;;11.50;5.55;;;;;;;;;;5095404;28;20032;-75
2022/04/29 05:38:20;;;;;;;16.73;7.05;;;;;;;;;;5106449;28;20063;-75
2022/04/29 05:43:31;;;;;;;17.10;5.97;;;;;;;;;;5111396;28;20074;-75
2022/04/29 05:45:57;;;;;;;8.88;5.40;;;;;;;;;;5114522;28;20451;-75
2022/04/29 05:48:23;;;;;;;13.05;5.10;;;;;;;;;;5110475;28;20043;-76
2022/04/29 05:50:49;;;;;;;9.60;5.18;;;;;;;;;;5110474;28;20380;-76
2022/04/29 05:53:15;;;;;;;16.95;6.20;;;;;;;;;;5105797;28;20096;-76
2022/04/29 05:55:42;;;;;;;15.50;6.28;;;;;;;;;;5111443;27;20038;-75
2022/04/29 05:58:08;;;;;;;7.95;4.78;;;;;;;;;;5105736;28;20028;-75
2022/04/29 06:00:34;;;;;;;16.77;6.50;;;;;;;;;;5097620;28;20085;-75
2022/04/29 06:03:00;;;;;;;39.13;8.02;;;;;;;;;;5112287;28;20457;-73
2022/04/29 06:05:26;;;;;;;27.42;5.95;;;;;;;;;;5109862;28;20039;-73
2022/04/29 06:07:52;;;;;;;13.50;6.65;;;;;;;;;;5110293;28;20054;-74
2022/04/29 06:10:19;;;;;;;10.90;5.32;;;;;;;;;;5110168;28;20067;-74
2022/04/29 06:12:46;;;;;;;9.20;4.93;;;;;;;;;;5104027;27;20380;-74
2022/04/29 06:15:19;;;;;;;14.85;5.38;;;;;;;;;;5108501;28;20052;-71
2022/04/29 06:17:45;;;;;;;9.80;5.03;;;;;;;;;;5108093;28;20111;-72
2022/04/29 06:20:12;;;;;;;12.40;5.40;;;;;;;;;;5108755;28;20123;-72
2022/04/29 06:22:47;;;;;;;11.32;4.75;;;;;;;;;;5110679;28;20102;-77
2022/04/29 06:25:13;;;;;;;12.63;5.50;;;;;;;;;;5110677;28;20462;-73
2022/04/29 06:27:41;;;;;;;10.13;6.43;;;;;;;;;;5112340;28;20119;-74
2022/04/29 06:30:08;;;;;;;13.18;7.45;;;;;;;;;;5099542;28;20485;-71
2022/04/29 06:32:35;;;;;;;12.48;6.93;;;;;;;;;;5108217;28;20024;-73
2022/04/29 06:35:01;;;;;;;25.05;13.95;;;;;;;;;;5110576;28;20028;-74
2022/04/29 06:37:27;;;;;;;11.23;4.63;;;;;;;;;;5106496;28;20910;-75
2022/04/29 06:39:53;;;;;;;8.00;4.47;;;;;;;;;;5110622;28;20044;-76
2022/04/29 06:42:19;;;;;;;10.55;4.45;;;;;;;;;;5099473;28;20103;-76
2022/04/29 06:44:45;;;;;;;9.27;4.88;;;;;;;;;;5110796;28;20032;-77
2022/04/29 06:47:11;;;;;;;7.63;4.22;;;;;;;;;;5098133;28;20104;-77
2022/04/29 06:49:38;;;;;;;9.10;4.70;;;;;;;;;;5109747;28;20097;-77
2022/04/29 06:52:04;;;;;;;10.80;4.03;;;;;;;;;;5109686;28;20035;-79
2022/04/29 06:54:30;;;;;;;7.80;3.65;;;;;;;;;;5110666;28;20028;-77
2022/04/29 06:56:56;;;;;;;10.13;4.00;;;;;;;;;;5109779;28;20532;-75
2022/04/29 06:59:22;;;;;;;11.38;3.53;;;;;;;;;;5100947;28;20048;-75
2022/04/29 07:01:48;;;;;;;6.85;3.17;;;;;;;;;;5107407;28;20020;-76
2022/04/29 07:04:14;;;;;;;8.88;2.90;;;;;;;;;;5112418;28;20027;-76
2022/04/29 07:06:40;;;;;;;7.10;3.05;;;;;;;;;;5109952;28;20047;-76
2022/04/29 07:09:06;;;;;;;8.70;3.40;;;;;;;;;;5104828;28;20032;-76
2022/04/29 07:11:32;;;;;;;4.28;2.50;;;;;;;;;;5109466;28;20032;-76
2022/04/29 07:13:59;;;;;;;10.98;3.58;;;;;;;;;;5112981;28;20494;-75
2022/04/29 07:16:25;;;;;;;5.05;2.72;;;;;;;;;;5102492;28;20055;-75
2022/04/29 07:18:51;;;;;;;8.80;2.30;;;;;;;;;;5110541;28;20463;-75
2022/04/29 07:21:17;;;;;;;8.80;2.33;;;;;;;;;;5101869;28;20055;-75
2022/04/29 07:23:43;;;;;;;8.82;3.47;;;;;;;;;;5104099;28;20123;-77
2022/04/29 07:26:09;;;;;;;8.10;4.82;;;;;;;;;;5101041;28;20152;-73
2022/04/29 07:28:35;;;;;;;9.30;2.95;;;;;;;;;;5102854;28;20122;-76
2022/04/29 07:31:02;;;;;;;4.38;2.58;;;;;;;;;;5107602;28;20587;-76
2022/04/29 07:33:28;;;;;;;10.88;3.20;;;;;;;;;;5099235;28;20040;-75
2022/04/29 07:44:08;;;;;;;5.07;1.80;;;;;;;;;;5102447;28;20434;-80
2022/04/29 07:46:36;;;;;;;7.72;2.90;;;;;;;;;;5087711;28;20059;-76
2022/04/29 07:49:03;;;;;;;7.60;4.32;;;;;;;;;;5105098;28;20542;-76
2022/04/29 07:51:29;;;;;;;8.65;3.05;;;;;;;;;;5099280;28;20100;-80
2022/04/29 07:53:55;;;;;;;4.70;1.60;;;;;;;;;;5106773;28;20023;-78
2022/04/29 07:56:21;;;;;;;4.63;1.25;;;;;;;;;;5105862;28;20116;-77
2022/04/29 07:58:47;;;;;;;9.90;2.00;;;;;;;;;;5110523;28;20038;-77
2022/04/29 08:01:13;;;;;;;6.72;1.42;;;;;;;;;;5108099;28;20047;-77
2022/04/29 08:03:40;;;;;;;8.25;1.50;;;;;;;;;;5111302;28;20027;-77
2022/04/29 08:06:06;;;;;;;6.28;1.50;;;;;;;;;;5107031;28;20095;-78
2022/04/29 08:08:33;;;;;;;6.85;1.45;;;;;;;;;;5097429;28;20122;-77
2022/04/29 08:10:59;;;;;;;5.82;1.75;;;;;;;;;;5104733;28;20054;-77
2022/04/29 08:13:25;;;;;;;7.35;1.80;;;;;;;;;;5110356;28;20036;-77
2022/04/29 08:15:51;;;;;;;4.70;1.38;;;;;;;;;;5110554;28;20030;-78
2022/04/29 08:18:18;;;;;;;7.65;2.25;;;;;;;;;;5110606;28;20038;-78
2022/04/29 08:20:45;;;;;;;4.63;1.88;;;;;;;;;;5102263;28;20036;-79
2022/04/29 08:23:11;;;;;;;8.77;1.77;;;;;;;;;;5111427;28;20111;-78
2022/04/29 08:25:37;;;;;;;6.03;1.73;;;;;;;;;;5105602;28;20293;-77
2022/04/29 08:28:04;;;;;;;12.00;5.07;;;;;;;;;;5108704;28;20110;-77
2022/04/29 08:30:30;;;;;;;10.57;3.75;;;;;;;;;;5101554;28;20486;-76
2022/04/29 08:32:57;;;;;;;3.97;1.45;;;;;;;;;;5108057;28;20036;-83
2022/04/29 08:35:23;;;;;;;4.60;1.83;;;;;;;;;;5107835;28;20089;-76
2022/04/29 08:37:49;;;;;;;6.65;1.58;;;;;;;;;;5110703;28;20033;-79
2022/04/29 08:40:16;;;;;;;4.50;1.05;;;;;;;;;;5103464;28;20123;-76
2022/04/29 08:42:42;;;;;;;4.40;1.45;;;;;;;;;;5107643;28;20102;-77
2022/04/29 08:45:13;;;;;;;6.45;1.35;;;;;;;;;;5109063;28;20024;-76
2022/04/29 08:47:40;;;;;;;9.57;1.75;;;;;;;;;;5100650;28;20024;-76
2022/04/29 08:50:07;;;;;;;4.93;1.90;;;;;;;;;;5108692;28;20027;-75
2022/04/29 08:52:34;;;;;;;6.47;1.73;;;;;;;;;;5109142;28;20051;-79
2022/04/29 09:00:30;;;;;;;4.32;1.42;;;;;;;;;;5108189;28;20879;-78
2022/04/29 09:02:57;;;;;;;7.78;2.05;;;;;;;;;;5113894;28;20023;-79
2022/04/29 09:05:23;;;;;;;6.38;1.60;;;;;;;;;;5105524;28;20536;-78
2022/04/29 09:08:00;;;;;;;4.93;1.10;;;11.20;99.90;;;;;;5115521;28;20034;-78
2022/04/29 09:10:28;;;;;;;3.67;1.30;;;;;;;;;;5111224;28;20028;-78
2022/04/29 09:12:55;;;;;;;8.07;2.42;;;;;;;;;;5114325;28;20031;-79
2022/04/29 09:15:21;;;;;;;6.10;1.30;;;;;;;;;;5106190;28;20038;-77
2022/04/29 09:17:49;;;;;;;5.13;1.63;;;;;;;;;;5094697;28;20107;-79
2022/04/29 09:20:19;;;;;;;4.20;1.40;;;;;;;;;;5108220;28;20420;-77
2022/04/29 09:22:49;;;;;;;4.47;1.10;;;;;;;;;;5102301;27;20157;-78
2022/04/29 09:25:16;;;;;;;6.50;1.85;;;;;;;;;;5109372;28;20020;-76
2022/04/29 09:28:01;;;;;;;6.63;1.45;;;;;;;;;;5114542;28;20479;-78
2022/04/29 09:30:35;;;;;;;11.65;5.07;;;11.10;99.90;;;;;;5104663;28;20115;-79
2022/04/29 09:33:01;;;;;;;9.02;1.98;;;;;;;;;;5106851;28;20398;-76
2022/04/29 09:35:36;;;;;;;5.45;2.80;;;;;;;;;;5110900;27;20039;-78
2022/04/29 09:40:48;;;;;;;10.80;2.60;;;;;;;;;;5111922;28;20062;-77
2022/04/29 09:43:15;;;;;;;5.82;1.60;;;;;;;;;;5110091;28;20088;-77
2022/04/29 09:45:41;;;;;;;7.57;2.55;;;;;;;;;;5107810;28;20484;-78
2022/04/29 09:48:09;;;;;;;7.80;2.30;;;;;;;;;;5100014;28;20024;-77
2022/04/29 09:50:46;;;;;;;8.32;2.88;;;11.20;99.90;;;;;;5109227;28;20063;-78
2022/04/29 09:53:15;;;;;;;8.55;2.50;;;;;;;;;;5109967;27;20054;-77
2022/04/29 09:55:42;;;;;;;4.63;1.73;;;;;;;;;;5106714;28;20383;-77
2022/04/29 09:58:09;;;;;;;2.65;1.48;;;;;;;;;;5107269;28;20383;-78
2022/04/29 10:00:36;;;;;;;4.82;1.52;;;;;;;;;;5111750;28;20055;-77
2022/04/29 10:03:03;;;;;;;6.13;1.75;;;;;;;;;;5096883;28;20127;-80
2022/04/29 10:05:30;;;;;;;3.15;1.38;;;;;;;;;;5103721;28;20040;-80
2022/04/29 10:07:58;;;;;;;5.20;1.20;;;;;;;;;;5114898;28;20084;-79
2022/04/29 10:10:24;;;;;;;6.20;2.22;;;;;;;;;;5116561;28;20404;-80
2022/04/29 10:12:51;;;;;;;6.10;1.27;;;;;;;;;;5106688;28;20032;-76
2022/04/29 10:15:20;;;;;;;5.93;1.95;;;11.70;99.90;;;;;;5109649;28;20485;-76
2022/04/29 10:23:16;;;;;;;3.70;1.60;;;;;;;;;;5119283;28;20042;-83
2022/04/29 10:25:44;;;;;;;6.50;2.08;;;;;;;;;;5123187;28;20027;-79
2022/04/29 10:28:10;;;;;;;4.72;1.60;;;;;;;;;;5115184;28;20024;-79
2022/04/29 10:30:37;;;;;;;9.45;1.65;;;;;;;;;;5103567;28;20031;-78
2022/04/29 10:33:10;;;;;;;8.45;1.73;;;;;;;;;;5095983;28;20425;-78
2022/04/29 10:35:39;;;;;;;6.13;1.90;;;;;;;;;;5112637;28;20467;-80
2022/04/29 10:38:18;;;;;;;6.03;1.38;;;;;;;;;;5102824;28;20079;-81
2022/04/29 10:40:45;;;;;;;5.35;1.52;;;;;;;;;;5107636;28;20047;-82
2022/04/29 10:43:13;;;;;;;7.05;1.88;;;;;;;;;;5108323;28;20031;-87
2022/04/29 10:45:58;;;;;;;6.57;1.40;;;;;;;;;;5105617;28;20031;-82
2022/04/29 10:48:30;;;;;;;20.70;11.77;;;;;;;;;;5098004;28;20169;-76
2022/04/29 10:50:56;;;;;;;6.30;2.30;;;;;;;;;;5101642;28;20028;-77
2022/04/29 10:53:23;;;;;;;5.32;1.77;;;;;;;;;;5111288;27;20036;-79
2022/04/29 10:55:49;;;;;;;7.63;1.90;;;;;;;;;;5104802;28;20028;-77
2022/04/29 10:58:22;;;;;;;6.25;1.80;;;;;;;;;;5108152;28;20035;-77
2022/04/29 11:01:14;;;;;;;6.20;1.60;;;;;;;;;;5108703;28;20726;-78
2022/04/29 11:03:43;;;;;;;5.03;2.00;;;;;;;;;;5099360;28;20047;-78
2022/04/29 11:06:10;;;;;;;3.58;1.55;;;;;;;;;;5096898;28;20032;-77
2022/04/29 11:08:37;;;;;;;2.45;1.25;;;;;;;;;;5107167;28;20027;-77
2022/04/29 11:11:03;;;;;;;4.70;1.73;;;;;;;;;;5110480;28;20524;-77
2022/04/29 11:13:33;;;;;;;7.00;1.77;;;;;;;;;;5091549;28;20036;-77
2022/04/29 11:16:15;;;;;;;4.63;1.70;;;;;;;;;;5111392;28;20091;-77
2022/04/29 11:18:42;;;;;;;3.40;1.58;;;;;;;;;;5114551;28;20036;-77
2022/04/29 11:26:45;;;;;;;5.43;1.80;;;;;;;;;;5097944;28;20100;-77
2022/04/29 11:29:11;;;;;;;6.53;2.42;;;;;;;;;;5106235;28;20031;-77
2022/04/29 11:31:37;;;;;;;5.93;1.45;;;;;;;;;;5104730;28;20081;-77
2022/04/29 11:34:07;;;;;;;6.82;1.50;;;;;;;;;;5106310;28;20028;-77
2022/04/29 11:36:33;;;;;;;6.22;1.50;;;;;;;;;;5111338;28;20036;-77
2022/04/29 11:38:59;;;;;;;5.70;1.70;;;;;;;;;;5096986;28;20035;-78
2022/04/29 11:41:30;;;;;;;4.70;1.70;;;;;;;;;;5108812;28;20050;-78
2022/04/29 11:43:57;;;;;;;7.38;1.63;;;;;;;;;;5093576;28;20024;-78
2022/04/29 11:46:23;;;;;;;7.20;1.40;;;;;;;;;;5107996;28;20066;-78
2022/04/29 11:48:50;;;;;;;7.68;1.65;;;;;;;;;;5105481;28;20043;-78
2022/04/29 11:51:16;;;;;;;6.88;2.00;;;;;;;;;;5108282;28;20032;-77
2022/04/29 11:53:54;;;;;;;3.88;1.42;;;;;;;;;;5098090;28;20399;-78
2022/04/29 11:56:20;;;;;;;7.47;1.70;;;;;;;;;;5105991;28;20103;-77
2022/04/29 11:58:46;;;;;;;6.68;2.13;;;;;;;;;;5108157;28;20157;-77
2022/04/29 12:01:15;;;;;;;6.10;1.52;;;;;;;;;;5097109;28;20082;-79
2022/04/29 12:03:47;;;;;;;7.05;1.50;;;;;;;;;;5091556;28;20019;-78
2022/04/29 12:06:13;;;;;;;7.07;2.17;;;;;;;;;;5106769;28;20078;-77
2022/04/29 12:08:40;;;;;;;7.13;1.50;;;;;;;;;;5098065;28;20429;-77
2022/04/29 12:11:07;;;;;;;10.32;2.15;;;;;;;;;;5102993;28;20032;-77
2022/04/29 12:13:36;;;;;;;8.65;2.05;;;;;;;;;;5101132;28;20714;-77
2022/04/29 12:16:04;;;;;;;6.03;1.65;;;;;;;;;;5103502;28;20060;-77
2022/04/29 12:18:56;;;;;;;11.07;2.92;;;11.90;99.90;;;;;;5090604;28;20029;-77
2022/04/29 12:21:24;;;;;;;9.23;2.30;;;;;;;;;;5089375;28;20047;-77
2022/04/29 12:23:50;;;;;;;5.90;1.52;;;;;;;;;;5095581;28;20354;-77
2022/04/29 12:26:16;;;;;;;5.00;1.67;;;;;;;;;;5105761;28;20039;-77
2022/04/29 12:28:42;;;;;;;6.95;2.08;;;;;;;;;;5106872;28;20039;-76
2022/04/29 12:36:46;;;;;;;10.82;2.00;;;;;;;;;;5112831;28;20529;-77
2022/04/29 12:39:12;;;;;;;2.88;1.60;;;;;;;;;;5112991;28;20119;-76
2022/04/29 12:41:38;;;;;;;6.15;1.85;;;;;;;;;;5104380;28;20045;-77
2022/04/29 12:44:09;;;;;;;12.52;2.03;;;;;;;;;;5115079;28;20110;-77
2022/04/29 12:46:35;;;;;;;7.25;2.20;;;;;;;;;;5108418;28;20031;-77
2022/04/29 12:49:01;;;;;;;7.75;2.10;;;;;;;;;;5115250;28;20309;-77
2022/04/29 12:51:32;;;;;;;2.58;1.40;;;;;;;;;;5103372;28;20040;-77
2022/04/29 12:54:02;;;;;;;5.60;1.40;;;;;;;;;;5112771;28;20080;-79
2022/04/29 12:56:29;;;;;;;4.68;1.70;;;;;;;;;;5104996;28;20024;-77
2022/04/29 12:58:55;;;;;;;9.57;2.13;;;;;;;;;;5108501;28;20036;-76
2022/04/29 13:01:21;;;;;;;7.07;1.80;;;;;;;;;;5103577;28;20125;-76
2022/04/29 13:03:58;;;;;;;3.25;1.48;;;;;;;;;;5108660;28;20399;-77
2022/04/29 13:06:24;;;;;;;2.95;1.55;;;;;;;;;;5113252;28;20556;-77
2022/04/29 13:08:58;;;;;;;7.18;1.92;;;;;;;;;;5114865;28;20473;-77
2022/04/29 13:11:25;;;;;;;3.55;1.95;;;;;;;;;;5110754;28;20043;-76
2022/04/29 13:13:51;;;;;;;9.95;3.10;;;;;;;;;;5101751;28;20039;-74
2022/04/29 13:16:18;;;;;;;11.65;4.05;;;;;;;;;;5105012;28;20038;-76
2022/04/29 13:18:44;;;;;;;3.53;1.67;;;;;;;;;;5115209;28;20086;-77
2022/04/29 13:21:11;;;;;;;4.88;1.40;;;;;;;;;;5105720;28;20028;-77
2022/04/29 13:23:38;;;;;;;5.80;1.48;;;;;;;;;;5110410;28;20028;-78
2022/04/29 13:26:04;;;;;;;4.80;1.45;;;;;;;;;;5112305;28;20119;-76
2022/04/29 13:28:31;;;;;;;5.05;1.20;;;;;;;;;;5110052;28;20031;-77
2022/04/29 13:30:57;;;;;;;5.18;1.30;;;;;;;;;;5103001;28;20102;-75
2022/04/29 13:33:23;;;;;;;4.53;1.48;;;;;;;;;;5107982;28;20059;-76
2022/04/29 13:35:49;;;;;;;2.92;1.17;;;;;;;;;;5112179;28;20034;-76
2022/04/29 13:38:16;;;;;;;5.95;1.95;;;;;;;;;;5105823;28;20023;-75
2022/04/29 13:40:42;;;;;;;6.10;1.45;;;;;;;;;;5113580;28;20134;-75
2022/04/29 13:43:08;;;;;;;4.60;1.40;;;;;;;;;;5111127;28;20023;-76
2022/04/29 13:45:35;;;;;;;3.40;1.88;;;12.20;99.90;;;;;;5113785;28;20031;-75
2022/04/29 13:48:02;;;;;;;5.03;1.42;;;;;;;;;;5109702;27;20421;-76
2022/04/29 13:50:28;;;;;;;5.10;1.60;;;;;;;;;;5114025;28;20382;-76
2022/04/29 13:53:09;;;;;;;3.83;1.20;;;;;;;;;;5108603;28;20123;-75
2022/04/29 13:55:37;;;;;;;5.90;1.50;;;;;;;;;;5113825;28;20364;-76
2022/04/29 13:58:03;;;;;;;1.70;1.10;;;;;;;;;;5099962;28;20376;-78
2022/04/29 14:00:29;;;;;;;5.82;1.50;;;;;;;;;;5112388;28;20052;-77
2022/04/29 14:02:55;;;;;;;3.85;1.67;;;;;;;;;;5111341;28;20031;-80
2022/04/29 14:05:24;;;;;;;3.22;1.65;;;;;;;;;;5106968;28;20027;-78
2022/04/29 14:07:50;;;;;;;4.10;1.77;;;;;;;;;;5113593;28;20646;-78
2022/04/29 14:10:16;;;;;;;6.40;1.77;;;;;;;;;;5111483;28;20035;-77
2022/04/29 14:12:43;;;;;;;4.57;1.40;;;;;;;;;;5090658;28;20031;-78
2022/04/29 14:15:10;;;;;;;5.95;1.50;;;12.50;99.90;;;;;;5095480;28;20035;-77
2022/04/29 14:17:36;;;;;;;3.97;1.60;;;;;;;;;;5093441;28;20429;-77
2022/04/29 14:20:02;;;;;;;9.85;2.10;;;;;;;;;;5102097;28;20079;-77
2022/04/29 14:22:28;;;;;;;8.40;2.28;;;;;;;;;;5111562;28;20111;-78
2022/04/29 14:24:55;;;;;;;7.95;2.45;;;;;;;;;;5109283;28;20027;-78
2022/04/29 14:27:21;;;;;;;7.07;2.95;;;;;;;;;;5111753;28;20032;-78
2022/04/29 14:29:48;;;;;;;8.20;3.33;;;;;;;;;;5093042;28;20032;-78
2022/04/29 14:32:14;;;;;;;6.55;2.88;;;;;;;;;;5109712;28;20281;-78
2022/04/29 14:34:41;;;;;;;6.32;2.90;;;;;;;;;;5111042;28;20028;-77
2022/04/29 14:37:07;;;;;;;7.40;2.72;;;;;;;;;;5111545;28;20024;-80
2022/04/29 14:39:34;;;;;;;7.05;3.17;;;;;;;;;;5107522;28;20043;-77
2022/04/29 14:42:00;;;;;;;7.38;2.50;;;;;;;;;;5107654;28;20062;-77
2022/04/29 14:44:27;;;;;;;14.65;3.50;;;;;;;;;;5105514;28;20032;-76
2022/04/29 14:46:53;;;;;;;7.75;2.55;;;;;;;;;;5109278;28;20097;-76
2022/04/29 14:49:20;;;;;;;6.30;2.65;;;;;;;;;;5109765;28;20132;-75
2022/04/29 14:51:46;;;;;;;9.50;2.90;;;;;;;;;;5112555;28;20500;-76
2022/04/29 14:54:12;;;;;;;11.65;1.98;;;;;;;;;;5108420;28;20024;-77
2022/04/29 14:56:41;;;;;;;6.47;2.88;;;;;;;;;;5109140;28;20084;-81
2022/04/29 14:59:07;;;;;;;21.65;10.05;;;;;;;;;;5104546;28;20035;-76
2022/04/29 15:01:33;;;;;;;8.90;4.50;;;;;;;;;;5113553;27;20028;-79
2022/04/29 15:03:59;;;;;;;7.07;3.95;;;;;;;;;;5088064;28;20028;-78
2022/04/29 15:06:25;;;;;;;7.65;3.70;;;;;;;;;;5116984;27;20558;-78
2022/04/29 15:17:26;;;;;;;5.65;3.35;;;;;;;;;;5101361;27;20038;-77
2022/04/29 15:19:52;;;;;;;9.55;4.03;;;;;;;;;;5114937;27;20513;-78